createdAt,value
2018-03-29T00:01:31.339Z,16.12
2018-03-29T00:03:59.542Z,16.17
2018-03-29T00:06:27.732Z,14.38
2018-03-29T00:08:55.936Z,16.73
2018-03-29T00:11:24.123Z,15.55
2018-03-29T00:13:52.320Z,15.05
2018-03-29T00:16:20.441Z,18.70
2018-03-29T00:18:48.618Z,17.75
2018-03-29T00:21:16.909Z,16.50
2018-03-29T00:23:45.196Z,16.30
2018-03-29T00:26:13.500Z,16.05
2018-03-29T00:28:41.784Z,15.02
2018-03-29T00:31:10.182Z,16.20
2018-03-29T00:33:38.478Z,16.37
2018-03-29T00:36:06.877Z,15.77
2018-03-29T00:38:34.980Z,16.62
2018-03-29T00:41:03.066Z,17.02
2018-03-29T00:43:32.581Z,15.68
2018-03-29T00:46:00.695Z,17.25
2018-03-29T00:48:28.766Z,17.95
2018-03-29T00:50:56.977Z,17.05
2018-03-29T00:53:25.058Z,16.37
2018-03-29T00:55:53.256Z,18.15
2018-03-29T00:58:21.263Z,16.40
2018-03-29T01:00:49.438Z,17.10
2018-03-29T01:03:17.838Z,17.67
2018-03-29T01:05:47.163Z,16.65
2018-03-29T01:08:15.456Z,18.02
2018-03-29T01:10:43.742Z,17.60
2018-03-29T01:13:12.056Z,17.55
2018-03-29T01:15:40.455Z,17.60
2018-03-29T01:18:08.738Z,16.92
2018-03-29T01:20:36.941Z,18.70
2018-03-29T01:23:05.041Z,16.80
2018-03-29T01:25:33.215Z,19.15
2018-03-29T01:28:01.322Z,18.42
2018-03-29T01:30:29.517Z,18.30
2018-03-29T01:32:57.605Z,18.60
2018-03-29T01:35:25.799Z,17.37
2018-03-29T01:37:53.885Z,18.50
2018-03-29T01:40:21.981Z,17.73
2018-03-29T01:42:50.081Z,18.05
2018-03-29T01:45:18.477Z,17.05
2018-03-29T01:47:46.881Z,17.55
2018-03-29T01:50:15.266Z,16.50
2018-03-29T01:52:43.597Z,17.62
2018-03-29T01:55:11.759Z,16.75
2018-03-29T01:57:40.162Z,18.83
2018-03-29T02:00:09.275Z,16.87
2018-03-29T02:02:37.483Z,17.95
2018-03-29T02:05:05.669Z,17.08
2018-03-29T02:07:33.757Z,19.45
2018-03-29T02:10:01.968Z,17.73
2018-03-29T02:12:30.141Z,18.00
2018-03-29T02:14:58.334Z,17.75
2018-03-29T02:17:26.457Z,18.00
2018-03-29T02:19:54.538Z,19.05
2018-03-29T02:22:22.717Z,18.05
2018-03-29T02:24:51.024Z,20.48
2018-03-29T02:27:19.304Z,18.60
2018-03-29T02:29:47.599Z,16.83
2018-03-29T02:32:15.898Z,18.45
2018-03-29T02:34:44.213Z,18.42
2018-03-29T02:37:12.610Z,17.70
2018-03-29T02:39:40.900Z,18.65
2018-03-29T02:42:08.997Z,14.38
2018-03-29T02:44:37.280Z,11.65
2018-03-29T02:47:05.478Z,11.05
2018-03-29T02:49:33.681Z,10.38
2018-03-29T02:52:01.866Z,9.38
2018-03-29T02:54:30.063Z,9.40
2018-03-29T02:56:58.247Z,9.30
2018-03-29T02:59:26.348Z,9.85
2018-03-29T03:01:54.360Z,9.32
2018-03-29T03:04:22.544Z,12.63
2018-03-29T03:06:50.845Z,14.43
2018-03-29T03:09:19.129Z,14.18
2018-03-29T03:11:47.431Z,11.10
2018-03-29T03:14:15.619Z,13.13
2018-03-29T03:16:43.919Z,12.70
2018-03-29T03:19:12.217Z,14.73
2018-03-29T03:21:41.232Z,13.88
2018-03-29T03:24:09.427Z,12.23
2018-03-29T03:26:37.605Z,10.57
2018-03-29T03:29:05.696Z,10.90
2018-03-29T03:31:33.897Z,11.68
2018-03-29T03:34:02.085Z,8.70
2018-03-29T03:36:30.280Z,10.02
2018-03-29T03:38:58.485Z,8.02
2018-03-29T03:41:26.582Z,9.40
2018-03-29T03:43:54.578Z,8.80
2018-03-29T03:46:22.875Z,10.00
2018-03-29T03:48:51.053Z,10.55
2018-03-29T03:51:19.356Z,9.05
2018-03-29T03:53:47.638Z,6.78
2018-03-29T03:56:15.949Z,6.70
2018-03-29T03:58:44.251Z,7.87
2018-03-29T04:01:12.634Z,8.05
2018-03-29T04:03:40.724Z,7.75
2018-03-29T04:06:08.934Z,6.60
2018-03-29T04:08:37.116Z,8.02
2018-03-29T04:11:05.324Z,9.32
2018-03-29T04:13:33.419Z,9.80
2018-03-29T04:16:01.608Z,8.95
2018-03-29T04:18:29.704Z,9.00
2018-03-29T04:20:57.997Z,8.32
2018-03-29T04:23:26.088Z,9.55
2018-03-29T04:25:54.305Z,8.95
2018-03-29T04:28:22.685Z,8.02
2018-03-29T04:30:50.979Z,7.80
2018-03-29T04:33:19.282Z,7.12
2018-03-29T04:35:47.561Z,7.62
2018-03-29T04:38:15.860Z,8.32
2018-03-29T04:40:44.258Z,8.90
2018-03-29T04:43:12.469Z,10.00
2018-03-29T04:45:40.663Z,10.27
2018-03-29T04:48:08.841Z,10.25
2018-03-29T04:50:37.042Z,10.30
2018-03-29T04:53:05.242Z,10.45
2018-03-29T04:55:33.461Z,9.05
2018-03-29T04:58:01.626Z,9.35
2018-03-29T05:00:29.813Z,10.50
2018-03-29T05:02:58.001Z,9.10
2018-03-29T05:05:26.322Z,10.65
2018-03-29T05:07:54.435Z,10.48
2018-03-29T05:10:22.710Z,10.52
2018-03-29T05:12:51.005Z,10.40
2018-03-29T05:15:20.724Z,11.52
2018-03-29T05:17:49.015Z,10.82
2018-03-29T05:20:17.221Z,10.82
2018-03-29T05:22:45.499Z,10.90
2018-03-29T05:25:13.609Z,11.02
2018-03-29T05:27:41.904Z,11.15
2018-03-29T05:30:09.982Z,10.95
2018-03-29T05:32:38.179Z,11.15
2018-03-29T05:35:06.267Z,11.50
2018-03-29T05:37:34.485Z,11.48
2018-03-29T05:40:02.576Z,13.10
2018-03-29T05:42:30.764Z,11.80
2018-03-29T05:44:58.858Z,11.82
2018-03-29T05:47:27.003Z,15.55
2018-03-29T05:49:55.234Z,15.27
2018-03-29T05:52:23.563Z,15.95
2018-03-29T05:54:51.941Z,18.73
2018-03-29T05:57:20.241Z,17.35
2018-03-29T05:59:48.641Z,16.87
2018-03-29T06:02:16.817Z,17.00
2018-03-29T06:04:45.018Z,18.75
2018-03-29T06:07:13.222Z,19.35
2018-03-29T06:09:41.398Z,19.80
2018-03-29T06:12:09.602Z,19.80
2018-03-29T06:14:37.696Z,19.23
2018-03-29T06:17:05.880Z,16.92
2018-03-29T06:19:34.077Z,18.87
2018-03-29T06:22:02.274Z,18.15
2018-03-29T06:24:30.483Z,19.20
2018-03-29T06:26:58.774Z,20.40
2018-03-29T06:29:26.857Z,19.35
2018-03-29T06:31:55.166Z,19.75
2018-03-29T06:34:23.360Z,19.37
2018-03-29T06:36:51.758Z,21.45
2018-03-29T06:39:20.157Z,21.35
2018-03-29T06:41:48.340Z,20.62
2018-03-29T06:44:16.539Z,20.50
2018-03-29T06:46:44.735Z,20.12
2018-03-29T06:49:12.920Z,20.48
2018-03-29T06:51:41.118Z,21.00
2018-03-29T06:54:09.211Z,20.35
2018-03-29T06:56:37.412Z,20.85
2018-03-29T06:59:05.602Z,21.80
2018-03-29T07:01:33.798Z,21.00
2018-03-29T07:04:01.989Z,20.45
2018-03-29T07:06:30.285Z,21.30
2018-03-29T07:08:58.478Z,21.12
2018-03-29T07:11:26.676Z,20.27
2018-03-29T07:13:54.859Z,22.13
2018-03-29T07:16:23.161Z,22.35
2018-03-29T07:18:51.454Z,20.52
2018-03-29T07:21:19.750Z,20.33
2018-03-29T07:23:47.858Z,20.20
2018-03-29T07:26:16.155Z,21.02
2018-03-29T07:28:44.349Z,20.88
2018-03-29T07:31:13.257Z,21.65
2018-03-29T07:33:41.442Z,20.67
2018-03-29T07:36:09.540Z,20.30
2018-03-29T07:38:37.834Z,20.55
2018-03-29T07:41:05.928Z,22.65
2018-03-29T07:43:34.122Z,25.08
2018-03-29T07:46:02.228Z,22.52
2018-03-29T07:48:30.506Z,24.40
2018-03-29T07:50:58.825Z,23.08
2018-03-29T07:53:26.940Z,23.87
2018-03-29T07:55:55.207Z,22.37
2018-03-29T07:58:23.485Z,23.77
2018-03-29T08:00:51.800Z,21.33
2018-03-29T08:03:19.980Z,21.85
2018-03-29T08:05:48.178Z,25.45
2018-03-29T08:08:16.481Z,25.08
2018-03-29T08:10:44.887Z,22.75
2018-03-29T08:13:13.270Z,23.00
2018-03-29T08:15:41.676Z,22.62
2018-03-29T08:18:09.861Z,21.65
2018-03-29T08:20:38.059Z,21.45
2018-03-29T08:23:06.266Z,22.33
2018-03-29T08:25:34.460Z,19.33
2018-03-29T08:28:02.754Z,24.75
2018-03-29T08:30:31.043Z,26.17
2018-03-29T08:32:59.240Z,22.62
2018-03-29T08:35:27.261Z,19.95
2018-03-29T08:37:55.523Z,19.65
2018-03-29T08:40:23.714Z,21.92
2018-03-29T08:42:51.917Z,21.10
2018-03-29T08:45:20.116Z,18.73
2018-03-29T08:47:48.308Z,19.27
2018-03-29T08:50:16.508Z,17.37
2018-03-29T08:52:44.691Z,18.37
2018-03-29T08:55:12.886Z,17.50
2018-03-29T08:57:41.077Z,19.08
2018-03-29T09:00:09.282Z,17.60
2018-03-29T09:02:37.465Z,17.05
2018-03-29T09:05:06.065Z,18.05
2018-03-29T09:07:34.275Z,17.17
2018-03-29T09:10:02.467Z,16.58
2018-03-29T09:12:30.757Z,16.48
2018-03-29T09:14:59.060Z,18.58
2018-03-29T09:17:27.302Z,17.35
2018-03-29T09:19:55.552Z,16.77
2018-03-29T09:22:23.944Z,16.55
2018-03-29T09:24:52.140Z,15.85
2018-03-29T09:27:20.324Z,16.23
2018-03-29T09:29:48.420Z,15.63
2018-03-29T09:32:16.628Z,15.75
2018-03-29T09:34:44.819Z,16.35
2018-03-29T09:37:12.906Z,16.15
2018-03-29T09:39:41.109Z,16.50
2018-03-29T09:42:09.300Z,16.40
2018-03-29T09:44:37.495Z,17.25
2018-03-29T09:47:05.775Z,16.50
2018-03-29T09:49:34.078Z,17.10
2018-03-29T09:52:02.477Z,17.62
2018-03-29T09:54:30.669Z,17.55
2018-03-29T09:56:58.978Z,16.05
2018-03-29T09:59:27.271Z,17.12
2018-03-29T10:01:55.458Z,16.25
2018-03-29T10:04:23.656Z,16.55
2018-03-29T10:06:51.741Z,18.67
2018-03-29T10:09:19.949Z,17.17
2018-03-29T10:11:48.135Z,17.92
2018-03-29T10:14:16.340Z,17.08
2018-03-29T10:16:44.538Z,15.57
2018-03-29T10:19:12.827Z,16.40
2018-03-29T10:21:40.920Z,16.65
2018-03-29T10:24:09.124Z,16.98
2018-03-29T10:26:37.405Z,17.33
2018-03-29T10:29:05.716Z,16.23
2018-03-29T10:31:34.116Z,16.83
2018-03-29T10:34:02.413Z,16.12
2018-03-29T10:36:30.799Z,16.02
2018-03-29T10:38:59.085Z,15.63
2018-03-29T10:41:27.089Z,17.12
2018-03-29T10:43:55.280Z,15.60
2018-03-29T10:46:23.361Z,17.17
2018-03-29T10:48:51.569Z,17.12
2018-03-29T10:51:19.665Z,16.35
2018-03-29T10:53:47.861Z,16.25
2018-03-29T10:56:15.947Z,16.65
2018-03-29T10:58:44.146Z,16.55
2018-03-29T11:01:12.251Z,14.87
2018-03-29T11:03:40.421Z,17.70
2018-03-29T11:06:08.523Z,16.05
2018-03-29T11:08:36.805Z,16.98
2018-03-29T11:11:05.007Z,16.40
2018-03-29T11:13:33.322Z,15.35
2018-03-29T11:16:01.597Z,16.05
2018-03-29T11:18:29.802Z,17.40
2018-03-29T11:20:57.979Z,15.80
2018-03-29T11:23:26.187Z,15.05
2018-03-29T11:25:54.183Z,15.73
2018-03-29T11:28:22.359Z,16.45
2018-03-29T11:30:50.456Z,15.57
2018-03-29T11:33:18.655Z,15.80
2018-03-29T11:35:46.754Z,15.38
2018-03-29T11:38:14.842Z,16.60
2018-03-29T11:40:43.039Z,16.00
2018-03-29T11:43:11.129Z,16.33
2018-03-29T11:45:39.424Z,16.77
2018-03-29T11:48:07.606Z,16.45
2018-03-29T11:50:36.940Z,16.10
2018-03-29T11:53:05.131Z,16.25
2018-03-29T11:55:33.523Z,17.52
2018-03-29T11:58:01.614Z,16.35
2018-03-29T12:00:29.825Z,15.35
2018-03-29T12:02:57.909Z,15.18
2018-03-29T12:05:26.096Z,15.43
2018-03-29T12:07:54.109Z,15.68
2018-03-29T12:10:22.402Z,15.60
2018-03-29T12:12:50.678Z,13.75
2018-03-29T12:15:18.885Z,14.70
2018-03-29T12:17:47.480Z,15.07
2018-03-29T12:20:15.679Z,16.98
2018-03-29T12:22:43.861Z,16.40
2018-03-29T12:25:12.073Z,16.40
2018-03-29T12:27:40.166Z,16.35
2018-03-29T12:30:08.348Z,14.15
2018-03-29T12:32:36.551Z,15.63
2018-03-29T12:35:04.940Z,15.48
2018-03-29T12:37:33.250Z,14.07
2018-03-29T12:40:01.440Z,15.05
2018-03-29T12:42:29.726Z,15.55
2018-03-29T12:44:57.995Z,13.60
2018-03-29T12:47:26.123Z,13.80
2018-03-29T12:49:54.157Z,14.77
2018-03-29T12:52:22.311Z,15.10
2018-03-29T12:54:50.508Z,14.50
2018-03-29T12:57:18.699Z,14.87
2018-03-29T12:59:46.887Z,17.10
2018-03-29T13:02:15.098Z,17.05
2018-03-29T13:04:43.268Z,16.92
2018-03-29T13:07:11.364Z,16.42
2018-03-29T13:09:39.668Z,15.23
2018-03-29T13:12:07.964Z,15.27
2018-03-29T13:14:36.260Z,16.65
2018-03-29T13:17:04.661Z,17.08
2018-03-29T13:19:32.755Z,15.85
2018-03-29T13:22:00.839Z,15.90
2018-03-29T13:24:30.154Z,14.80
2018-03-29T13:26:58.254Z,16.20
2018-03-29T13:29:26.356Z,15.65
2018-03-29T13:31:54.635Z,15.13
2018-03-29T13:34:22.752Z,14.02
2018-03-29T13:36:50.943Z,13.95
2018-03-29T13:39:19.046Z,14.48
2018-03-29T13:41:47.315Z,15.90
2018-03-29T13:44:15.422Z,18.65
2018-03-29T13:46:43.495Z,18.85
2018-03-29T13:49:11.694Z,17.30
2018-03-29T13:51:39.894Z,16.52
2018-03-29T13:54:07.982Z,14.98
2018-03-29T13:56:36.074Z,14.07
2018-03-29T13:59:04.282Z,15.30
2018-03-29T14:01:32.474Z,14.90
2018-03-29T14:04:00.554Z,15.05
2018-03-29T14:06:28.754Z,13.73
2018-03-29T14:08:56.955Z,15.70
2018-03-29T14:11:25.034Z,14.90
2018-03-29T14:13:53.234Z,13.65
2018-03-29T14:16:21.736Z,13.85
2018-03-29T14:18:49.832Z,12.25
2018-03-29T14:21:18.023Z,13.23
2018-03-29T14:23:46.115Z,11.12
2018-03-29T14:26:14.411Z,11.73
2018-03-29T14:28:42.704Z,10.25
2018-03-29T14:31:10.998Z,10.07
2018-03-29T14:33:39.200Z,10.75
2018-03-29T14:36:07.596Z,11.20
2018-03-29T14:38:35.896Z,10.27
2018-03-29T14:41:03.996Z,11.88
2018-03-29T14:43:32.180Z,12.40
2018-03-29T14:46:00.381Z,11.02
2018-03-29T14:48:28.470Z,9.90
2018-03-29T14:50:56.649Z,9.48
2018-03-29T14:53:24.749Z,9.07
2018-03-29T14:55:52.951Z,10.10
2018-03-29T14:58:20.972Z,9.48
2018-03-29T15:00:49.231Z,8.93
2018-03-29T15:03:17.332Z,9.40
2018-03-29T15:05:45.516Z,8.93
2018-03-29T15:08:13.595Z,9.27
2018-03-29T15:10:41.667Z,9.27
2018-03-29T15:13:09.687Z,9.93
2018-03-29T15:15:37.882Z,11.02
2018-03-29T15:18:05.988Z,10.70
2018-03-29T15:20:34.190Z,11.35
2018-03-29T15:23:02.363Z,10.65
2018-03-29T15:25:30.559Z,12.20
2018-03-29T15:27:58.658Z,14.45
2018-03-29T15:30:26.855Z,12.63
2018-03-29T15:32:55.041Z,13.65
2018-03-29T15:35:23.236Z,12.95
2018-03-29T15:37:51.336Z,14.70
2018-03-29T15:40:19.523Z,14.10
2018-03-29T15:42:47.531Z,14.52
2018-03-29T15:45:15.804Z,14.02
2018-03-29T15:47:44.096Z,15.93
2018-03-29T15:50:12.410Z,14.87
2018-03-29T15:52:40.703Z,15.50
2018-03-29T15:55:09.003Z,14.45
2018-03-29T15:57:37.293Z,16.67
2018-03-29T16:00:05.490Z,14.68
2018-03-29T16:02:33.574Z,15.05
2018-03-29T16:05:01.774Z,15.10
2018-03-29T16:07:30.008Z,17.92
2018-03-29T16:09:58.169Z,18.83
2018-03-29T16:12:26.250Z,18.95
2018-03-29T16:14:55.356Z,18.58
2018-03-29T16:17:23.577Z,21.50
2018-03-29T16:19:51.656Z,16.58
2018-03-29T16:22:19.858Z,15.00
2018-03-29T16:24:47.937Z,16.45
2018-03-29T16:27:16.244Z,15.10
2018-03-29T16:29:44.333Z,15.85
2018-03-29T16:32:12.528Z,18.10
2018-03-29T16:34:40.728Z,17.60
2018-03-29T16:37:08.912Z,17.20
2018-03-29T16:39:36.998Z,18.17
2018-03-29T16:42:05.207Z,19.90
2018-03-29T16:44:33.298Z,21.20
2018-03-29T16:47:01.680Z,19.37
2018-03-29T16:49:29.779Z,19.12
2018-03-29T16:51:58.078Z,20.20
2018-03-29T16:54:26.178Z,21.90
2018-03-29T16:56:54.358Z,18.70
2018-03-29T16:59:22.475Z,20.77
2018-03-29T17:01:50.658Z,18.65
2018-03-29T17:04:18.738Z,21.10
2018-03-29T17:06:46.939Z,21.55
2018-03-29T17:09:14.935Z,21.92
2018-03-29T17:11:43.038Z,21.00
2018-03-29T17:14:11.234Z,21.15
2018-03-29T17:16:39.512Z,20.77
2018-03-29T17:19:07.597Z,21.85
2018-03-29T17:21:35.801Z,23.27
2018-03-29T17:24:04.009Z,21.42
2018-03-29T17:26:32.181Z,23.38
2018-03-29T17:29:00.304Z,22.05
2018-03-29T17:31:28.781Z,23.75
2018-03-29T17:33:56.885Z,22.75
2018-03-29T17:36:25.060Z,23.20
2018-03-29T17:38:53.262Z,21.92
2018-03-29T17:41:21.361Z,22.02
2018-03-29T17:43:49.448Z,22.92
2018-03-29T17:46:17.646Z,22.77
2018-03-29T17:48:45.746Z,26.10
2018-03-29T17:51:13.926Z,24.40
2018-03-29T17:53:41.930Z,25.08
2018-03-29T17:56:10.111Z,24.45
2018-03-29T17:58:38.306Z,23.98
2018-03-29T18:01:06.505Z,25.10
2018-03-29T18:03:34.709Z,23.10
2018-03-29T18:06:02.986Z,23.90
2018-03-29T18:08:31.387Z,25.85
2018-03-29T18:10:59.587Z,25.98
2018-03-29T18:13:27.686Z,25.75
2018-03-29T18:15:55.875Z,25.40
2018-03-29T18:18:23.972Z,27.37
2018-03-29T18:20:53.288Z,26.98
2018-03-29T18:23:21.588Z,25.67
2018-03-29T18:25:49.766Z,24.83
2018-03-29T18:28:17.983Z,26.62
2018-03-29T18:30:46.262Z,25.67
2018-03-29T18:33:14.357Z,23.92
2018-03-29T18:35:42.365Z,24.80
2018-03-29T18:38:10.647Z,25.30
2018-03-29T18:40:38.736Z,26.87
2018-03-29T18:43:06.937Z,24.58
2018-03-29T18:45:35.129Z,26.73
2018-03-29T18:48:03.314Z,33.03
2018-03-29T18:50:31.435Z,27.25
2018-03-29T18:52:59.823Z,25.77
2018-03-29T18:55:27.994Z,25.05
2018-03-29T18:57:56.195Z,25.62
2018-03-29T19:00:24.296Z,27.58
2018-03-29T19:02:52.494Z,25.02
2018-03-29T19:05:20.677Z,25.27
2018-03-29T19:07:48.874Z,26.12
2018-03-29T19:10:17.075Z,25.20
2018-03-29T19:12:45.384Z,26.10
2018-03-29T19:15:13.555Z,24.83
2018-03-29T19:17:41.658Z,24.30
2018-03-29T19:20:09.735Z,24.17
2018-03-29T19:22:37.934Z,27.02
2018-03-29T19:25:06.137Z,25.50
2018-03-29T19:27:34.328Z,26.12
2018-03-29T19:30:02.514Z,25.33
2018-03-29T19:32:30.715Z,25.05
2018-03-29T19:34:58.975Z,25.30
2018-03-29T19:37:27.217Z,26.37
2018-03-29T19:39:55.295Z,26.65
2018-03-29T19:42:23.496Z,25.73
2018-03-29T19:44:51.474Z,26.42
2018-03-29T19:47:19.675Z,24.05
2018-03-29T19:49:47.874Z,24.70
2018-03-29T19:52:16.056Z,22.73
2018-03-29T19:54:44.155Z,19.95
2018-03-29T19:57:12.355Z,21.92
2018-03-29T19:59:40.554Z,20.45
2018-03-29T20:02:08.639Z,21.85
2018-03-29T20:04:36.745Z,20.25
2018-03-29T20:07:05.023Z,21.20
2018-03-29T20:09:33.118Z,18.87
2018-03-29T20:12:01.323Z,20.10
2018-03-29T20:14:29.604Z,19.15
2018-03-29T20:16:57.897Z,23.95
2018-03-29T20:19:26.004Z,23.00
2018-03-29T20:21:54.287Z,21.15
2018-03-29T20:24:22.601Z,19.87
2018-03-29T20:26:50.780Z,18.05
2018-03-29T20:29:18.980Z,20.42
2018-03-29T20:31:47.165Z,20.10
2018-03-29T20:34:15.373Z,19.58
2018-03-29T20:36:43.470Z,19.48
2018-03-29T20:39:11.647Z,18.60
2018-03-29T20:41:39.847Z,19.33
2018-03-29T20:44:08.048Z,17.25
2018-03-29T20:46:36.048Z,16.60
2018-03-29T20:49:04.327Z,16.23
2018-03-29T20:51:32.420Z,15.30
2018-03-29T20:54:00.618Z,16.00
2018-03-29T20:56:28.818Z,16.87
2018-03-29T20:58:56.997Z,16.77
2018-03-29T21:01:25.098Z,17.42
2018-03-29T21:03:53.297Z,15.40
2018-03-29T21:06:21.398Z,16.20
2018-03-29T21:08:49.574Z,15.05
2018-03-29T21:11:17.774Z,15.95
2018-03-29T21:13:45.974Z,16.58
2018-03-29T21:16:14.055Z,15.63
2018-03-29T21:18:42.266Z,16.40
2018-03-29T21:21:10.447Z,15.88
2018-03-29T21:23:38.646Z,15.90
2018-03-29T21:26:06.736Z,15.57
2018-03-29T21:28:34.937Z,14.70
2018-03-29T21:31:02.920Z,150.07
2018-03-29T21:33:31.120Z,48.05
2018-03-29T21:35:59.323Z,32.22
2018-03-29T21:38:27.619Z,19.87
2018-03-29T21:40:55.797Z,20.33
2018-03-29T21:43:23.990Z,18.15
2018-03-29T21:45:52.284Z,20.95
2018-03-29T21:48:20.484Z,17.23
2018-03-29T21:50:49.529Z,16.95
2018-03-29T21:53:17.791Z,14.75
2018-03-29T21:55:45.881Z,15.45
2018-03-29T21:58:14.079Z,16.83
2018-03-29T22:00:42.283Z,17.10
2018-03-29T22:03:10.485Z,18.27
2018-03-29T22:05:38.671Z,18.50
2018-03-29T22:08:06.869Z,17.15
2018-03-29T22:10:34.956Z,17.30
2018-03-29T22:13:03.045Z,16.25
2018-03-29T22:15:31.143Z,17.67
2018-03-29T22:17:59.426Z,16.40
2018-03-29T22:20:27.625Z,14.15
2018-03-29T22:22:55.923Z,15.25
2018-03-29T22:25:24.365Z,14.77
2018-03-29T22:27:52.614Z,9.77
2018-03-29T22:30:20.822Z,6.35
2018-03-29T22:32:49.106Z,3.60
2018-03-29T22:35:17.203Z,2.40
2018-03-29T22:37:45.508Z,2.75
2018-03-29T22:40:13.695Z,1.60
2018-03-29T22:42:41.885Z,1.87
2018-03-29T22:45:09.978Z,1.25
2018-03-29T22:47:38.177Z,1.60
2018-03-29T22:50:06.375Z,0.93
2018-03-29T22:52:35.721Z,1.70
2018-03-29T22:55:03.884Z,1.35
2018-03-29T22:57:31.885Z,1.33
2018-03-29T23:00:00.277Z,0.93
2018-03-29T23:02:28.556Z,0.70
2018-03-29T23:04:56.860Z,0.80
2018-03-29T23:07:25.155Z,0.80
2018-03-29T23:09:53.458Z,0.98
2018-03-29T23:12:21.855Z,0.90
2018-03-29T23:14:50.041Z,0.90
2018-03-29T23:17:18.235Z,0.90
2018-03-29T23:19:46.441Z,1.20
2018-03-29T23:22:14.662Z,0.80
2018-03-29T23:24:42.939Z,0.90
2018-03-29T23:27:11.021Z,0.98
2018-03-29T23:29:39.217Z,0.95
2018-03-29T23:32:07.414Z,1.00
2018-03-29T23:34:35.500Z,1.05
2018-03-29T23:37:03.586Z,1.50
2018-03-29T23:39:31.900Z,1.90
2018-03-29T23:42:00.296Z,1.15
2018-03-29T23:44:28.584Z,0.80
2018-03-29T23:46:56.883Z,1.10
2018-03-29T23:49:25.186Z,1.20
2018-03-29T23:51:53.394Z,1.00
2018-03-29T23:54:21.780Z,0.98
2018-03-29T23:56:49.967Z,0.80
2018-03-29T23:59:18.156Z,0.80
